AAL2198 KCLT-KDAB
Flight info
| Callsign | AAL2198 |
|---|---|
| Flight time | 1h 11m |
| Altitude | 34000 |
| Route | ICONS5 NOOKS WURFL Q83 ROYCO Q85 LPERD TTHOR3 |
| Aircraft | B738/M-SDE2E3FGHIRWXY/LB1 |
Departure
| Time | 2026-04-21 09:23 |
|---|---|
| Airport | Charlotte Douglas International Airport (KCLT) |
Arrival
| Time | 2026-04-21 10:35 |
|---|---|
| Airport | Daytona Beach International Airport (KDAB) |
| Time | Latitude | Longitude | Altitude | Speed | Heading |
|---|---|---|---|---|---|
| 2026-04-21 08:42 | 35.21792 | -80.94155 | 731 ft | 0 kts | 286° |
| 2026-04-21 09:12 | 35.21788 | -80.94135 | 730 ft | 4 kts | 282° |
| 2026-04-21 09:13 | 35.21783 | -80.94109 | 730 ft | 4 kts | 297° |
| 2026-04-21 09:13 | 35.21767 | -80.94088 | 729 ft | 4 kts | 352° |
| 2026-04-21 09:13 | 35.21746 | -80.94096 | 729 ft | 4 kts | 48° |
| 2026-04-21 09:13 | 35.21732 | -80.94116 | 729 ft | 1 kts | 48° |
| 2026-04-21 09:16 | 35.21742 | -80.94092 | 731 ft | 7 kts | 70° |
| 2026-04-21 09:17 | 35.21726 | -80.94017 | 730 ft | 12 kts | 131° |
| 2026-04-21 09:17 | 35.21650 | -80.93931 | 732 ft | 17 kts | 138° |
| 2026-04-21 09:17 | 35.21549 | -80.93825 | 731 ft | 21 kts | 139° |
| 2026-04-21 09:17 | 35.21433 | -80.93702 | 732 ft | 22 kts | 139° |
| 2026-04-21 09:18 | 35.21340 | -80.93655 | 732 ft | 22 kts | 173° |
| 2026-04-21 09:18 | 35.21146 | -80.93638 | 732 ft | 21 kts | 176° |
| 2026-04-21 09:18 | 35.21004 | -80.93625 | 732 ft | 20 kts | 177° |
| 2026-04-21 09:18 | 35.20867 | -80.93616 | 732 ft | 19 kts | 173° |
| 2026-04-21 09:19 | 35.20777 | -80.93606 | 730 ft | 19 kts | 176° |
| 2026-04-21 09:19 | 35.20645 | -80.93596 | 732 ft | 19 kts | 175° |
| 2026-04-21 09:19 | 35.20512 | -80.93582 | 732 ft | 19 kts | 176° |
| 2026-04-21 09:19 | 35.20380 | -80.93572 | 732 ft | 19 kts | 175° |
| 2026-04-21 09:20 | 35.20241 | -80.93567 | 732 ft | 11 kts | 180° |
| 2026-04-21 09:20 | 35.20211 | -80.93539 | 732 ft | 5 kts | 107° |
| 2026-04-21 09:20 | 35.20211 | -80.93532 | 732 ft | 0 kts | 96° |
| 2026-04-21 09:21 | 35.20210 | -80.93530 | 732 ft | 1 kts | 96° |
| 2026-04-21 09:21 | 35.20212 | -80.93470 | 734 ft | 11 kts | 76° |
| 2026-04-21 09:22 | 35.20274 | -80.93430 | 735 ft | 11 kts | 359° |
| 2026-04-21 09:22 | 35.20291 | -80.93431 | 735 ft | 0 kts | 357° |
| 2026-04-21 09:22 | 35.20332 | -80.93434 | 736 ft | 29 kts | 355° |
| 2026-04-21 09:23 | 35.20831 | -80.93482 | 734 ft | 115 kts | 354° |
| 2026-04-21 09:23 | 35.21885 | -80.93573 | 798 ft | 181 kts | 355° |
| 2026-04-21 09:23 | 35.23148 | -80.93610 | 1816 ft | 176 kts | 354° |
| 2026-04-21 09:23 | 35.24270 | -80.93620 | 3340 ft | 150 kts | 355° |
| 2026-04-21 09:24 | 35.25322 | -80.93636 | 4126 ft | 161 kts | 353° |
| 2026-04-21 09:24 | 35.26556 | -80.93725 | 4442 ft | 192 kts | 352° |
| 2026-04-21 09:24 | 35.27967 | -80.93906 | 4658 ft | 215 kts | 341° |
| 2026-04-21 09:24 | 35.29232 | -80.94913 | 5050 ft | 223 kts | 308° |
| 2026-04-21 09:25 | 35.29826 | -80.96671 | 5606 ft | 231 kts | 277° |
| 2026-04-21 09:25 | 35.29534 | -80.98617 | 6285 ft | 239 kts | 247° |
| 2026-04-21 09:25 | 35.28419 | -81.00156 | 6941 ft | 250 kts | 218° |
| 2026-04-21 09:25 | 35.26746 | -81.00855 | 7524 ft | 263 kts | 188° |
| 2026-04-21 09:26 | 35.24907 | -81.00640 | 8190 ft | 267 kts | 174° |
| 2026-04-21 09:26 | 35.23073 | -81.00198 | 8818 ft | 271 kts | 172° |
| 2026-04-21 09:26 | 35.21184 | -80.99709 | 9212 ft | 286 kts | 172° |
| 2026-04-21 09:26 | 35.19190 | -80.99195 | 9750 ft | 298 kts | 173° |
| 2026-04-21 09:27 | 35.17150 | -80.98675 | 10510 ft | 306 kts | 173° |
| 2026-04-21 09:27 | 35.14974 | -80.98129 | 10706 ft | 333 kts | 171° |
| 2026-04-21 09:27 | 35.12637 | -80.97427 | 10988 ft | 356 kts | 166° |
| 2026-04-21 09:27 | 35.10360 | -80.96217 | 11555 ft | 371 kts | 148° |
| 2026-04-21 09:28 | 35.08547 | -80.93942 | 12281 ft | 380 kts | 121° |
| 2026-04-21 09:28 | 35.07675 | -80.90910 | 13051 ft | 382 kts | 94° |
| 2026-04-21 09:28 | 35.07903 | -80.87723 | 13813 ft | 378 kts | 68° |
| 2026-04-21 09:28 | 35.09178 | -80.84983 | 14513 ft | 369 kts | 41° |
| 2026-04-21 09:29 | 35.11227 | -80.83227 | 15247 ft | 356 kts | 15° |
| 2026-04-21 09:29 | 35.13604 | -80.82774 | 16022 ft | 342 kts | 350° |
| 2026-04-21 09:29 | 35.15809 | -80.83667 | 16816 ft | 333 kts | 325° |
| 2026-04-21 09:29 | 35.17405 | -80.85677 | 17540 ft | 334 kts | 301° |
| 2026-04-21 09:30 | 35.18351 | -80.88283 | 18287 ft | 337 kts | 293° |
| 2026-04-21 09:30 | 35.19186 | -80.90979 | 18911 ft | 340 kts | 294° |
| 2026-04-21 09:30 | 35.20153 | -80.93620 | 19525 ft | 340 kts | 301° |
| 2026-04-21 09:30 | 35.21529 | -80.95955 | 20142 ft | 340 kts | 317° |
| 2026-04-21 09:31 | 35.23566 | -80.97424 | 20808 ft | 344 kts | 335° |
| 2026-04-21 09:31 | 35.25737 | -80.98631 | 21423 ft | 343 kts | 325° |
| 2026-04-21 09:31 | 35.27431 | -81.00662 | 21968 ft | 346 kts | 304° |
| 2026-04-21 09:31 | 35.28281 | -81.03439 | 22572 ft | 356 kts | 283° |
| 2026-04-21 09:32 | 35.28209 | -81.06519 | 23163 ft | 373 kts | 265° |
| 2026-04-21 09:32 | 35.27298 | -81.09558 | 23703 ft | 392 kts | 250° |
| 2026-04-21 09:32 | 35.25634 | -81.12312 | 24123 ft | 414 kts | 234° |
| 2026-04-21 09:32 | 35.23305 | -81.14524 | 24514 ft | 436 kts | 218° |
| 2026-04-21 09:33 | 35.20448 | -81.15880 | 24897 ft | 459 kts | 200° |
| 2026-04-21 09:33 | 35.17157 | -81.16109 | 25270 ft | 481 kts | 178° |
| 2026-04-21 09:33 | 35.13932 | -81.14998 | 25671 ft | 495 kts | 159° |
| 2026-04-21 09:33 | 35.10850 | -81.13060 | 26092 ft | 500 kts | 153° |
| 2026-04-21 09:34 | 35.07804 | -81.10980 | 26430 ft | 504 kts | 154° |
| 2026-04-21 09:34 | 35.04677 | -81.09015 | 26763 ft | 506 kts | 157° |
| 2026-04-21 09:34 | 35.01468 | -81.07235 | 27134 ft | 508 kts | 160° |
| 2026-04-21 09:34 | 34.98196 | -81.05595 | 27510 ft | 509 kts | 162° |
| 2026-04-21 09:35 | 34.94874 | -81.04019 | 27852 ft | 512 kts | 162° |
| 2026-04-21 09:35 | 34.91544 | -81.02458 | 28148 ft | 515 kts | 162° |
| 2026-04-21 09:35 | 34.88203 | -81.00873 | 28555 ft | 515 kts | 162° |
| 2026-04-21 09:35 | 34.84872 | -80.99272 | 28989 ft | 516 kts | 162° |
| 2026-04-21 09:36 | 34.81485 | -80.97806 | 29267 ft | 515 kts | 169° |
| 2026-04-21 09:36 | 34.77990 | -80.96933 | 29526 ft | 513 kts | 178° |
| 2026-04-21 09:36 | 34.74447 | -80.96678 | 29806 ft | 507 kts | 188° |
| 2026-04-21 09:36 | 34.70920 | -80.96868 | 30156 ft | 506 kts | 189° |
| 2026-04-21 09:37 | 34.67395 | -80.97073 | 30527 ft | 506 kts | 189° |
| 2026-04-21 09:37 | 34.63888 | -80.97218 | 30988 ft | 502 kts | 188° |
| 2026-04-21 09:37 | 34.60429 | -80.97327 | 31671 ft | 493 kts | 189° |
| 2026-04-21 09:37 | 34.57075 | -80.97552 | 32093 ft | 489 kts | 192° |
| 2026-04-21 09:38 | 34.53680 | -80.97886 | 32362 ft | 489 kts | 193° |
| 2026-04-21 09:38 | 34.50282 | -80.98259 | 32618 ft | 490 kts | 193° |
| 2026-04-21 09:38 | 34.46886 | -80.98628 | 32981 ft | 489 kts | 193° |
| 2026-04-21 09:38 | 34.43502 | -80.98977 | 33419 ft | 486 kts | 193° |
| 2026-04-21 09:39 | 34.40138 | -80.99306 | 33810 ft | 484 kts | 193° |
| 2026-04-21 09:39 | 34.36784 | -80.99623 | 34220 ft | 482 kts | 193° |
| 2026-04-21 09:39 | 34.30051 | -81.00253 | 34235 ft | 486 kts | 193° |
| 2026-04-21 09:40 | 34.23334 | -81.00871 | 34226 ft | 481 kts | 193° |
| 2026-04-21 09:40 | 34.16681 | -81.01486 | 34232 ft | 479 kts | 193° |
| 2026-04-21 09:41 | 34.10043 | -81.02102 | 34243 ft | 477 kts | 194° |
| 2026-04-21 09:41 | 34.03433 | -81.02716 | 34231 ft | 476 kts | 194° |
| 2026-04-21 09:42 | 33.96824 | -81.03259 | 34229 ft | 480 kts | 191° |
| 2026-04-21 09:42 | 33.90124 | -81.03249 | 34216 ft | 482 kts | 189° |
| 2026-04-21 09:43 | 33.83466 | -81.03112 | 34233 ft | 480 kts | 190° |
| 2026-04-21 09:43 | 33.76796 | -81.03006 | 34233 ft | 478 kts | 190° |
| 2026-04-21 09:44 | 33.70165 | -81.02937 | 34226 ft | 476 kts | 191° |
| 2026-04-21 09:44 | 33.63542 | -81.02881 | 34221 ft | 475 kts | 191° |
| 2026-04-21 09:45 | 33.56943 | -81.02823 | 34217 ft | 473 kts | 191° |
| 2026-04-21 09:45 | 33.50351 | -81.02765 | 34219 ft | 472 kts | 191° |
| 2026-04-21 09:46 | 33.43776 | -81.02707 | 34239 ft | 472 kts | 191° |
| 2026-04-21 09:46 | 33.37202 | -81.02649 | 34235 ft | 473 kts | 191° |
| 2026-04-21 09:47 | 33.30624 | -81.02589 | 34236 ft | 472 kts | 192° |
| 2026-04-21 09:47 | 33.24058 | -81.02531 | 34243 ft | 472 kts | 192° |
| 2026-04-21 09:48 | 33.17471 | -81.02473 | 34247 ft | 473 kts | 192° |
| 2026-04-21 09:48 | 33.10886 | -81.02415 | 34257 ft | 474 kts | 192° |
| 2026-04-21 09:49 | 33.04326 | -81.02356 | 34244 ft | 474 kts | 192° |
| 2026-04-21 09:49 | 32.97717 | -81.02297 | 34243 ft | 475 kts | 192° |
| 2026-04-21 09:50 | 32.93293 | -81.02258 | 34240 ft | 475 kts | 192° |
| 2026-04-21 09:50 | 32.84474 | -81.02179 | 34245 ft | 476 kts | 192° |
| 2026-04-21 09:51 | 32.77860 | -81.02119 | 34251 ft | 475 kts | 192° |
| 2026-04-21 09:51 | 32.71239 | -81.02061 | 34261 ft | 476 kts | 192° |
| 2026-04-21 09:52 | 32.64609 | -81.02003 | 34260 ft | 477 kts | 192° |
| 2026-04-21 09:52 | 32.57968 | -81.01944 | 34260 ft | 478 kts | 192° |
| 2026-04-21 09:53 | 32.51325 | -81.01896 | 34257 ft | 476 kts | 194° |
| 2026-04-21 09:53 | 32.44702 | -81.02002 | 34262 ft | 475 kts | 195° |
| 2026-04-21 09:54 | 32.38121 | -81.02141 | 34260 ft | 477 kts | 194° |
| 2026-04-21 09:54 | 32.31480 | -81.02253 | 34261 ft | 478 kts | 194° |
| 2026-04-21 09:55 | 32.24825 | -81.02360 | 34255 ft | 477 kts | 194° |
| 2026-04-21 09:55 | 32.18192 | -81.02477 | 34251 ft | 477 kts | 194° |
| 2026-04-21 09:56 | 32.11554 | -81.02595 | 34229 ft | 476 kts | 194° |
| 2026-04-21 09:56 | 32.04925 | -81.02712 | 34223 ft | 476 kts | 194° |
| 2026-04-21 09:57 | 31.98314 | -81.02831 | 34196 ft | 473 kts | 194° |
| 2026-04-21 09:57 | 31.91747 | -81.03016 | 34217 ft | 471 kts | 195° |
| 2026-04-21 09:58 | 31.85204 | -81.03221 | 34233 ft | 469 kts | 195° |
| 2026-04-21 09:58 | 31.78725 | -81.03416 | 34240 ft | 468 kts | 195° |
| 2026-04-21 09:59 | 31.72219 | -81.03605 | 34245 ft | 467 kts | 194° |
| 2026-04-21 09:59 | 31.65722 | -81.03793 | 34250 ft | 466 kts | 194° |
| 2026-04-21 10:00 | 31.59356 | -81.04397 | 34253 ft | 445 kts | 206° |
| 2026-04-21 10:00 | 31.56439 | -81.05398 | 34264 ft | 430 kts | 214° |
| 2026-04-21 10:00 | 31.53775 | -81.06840 | 34267 ft | 416 kts | 221° |
| 2026-04-21 10:01 | 31.48671 | -81.10060 | 34225 ft | 417 kts | 221° |
| 2026-04-21 10:01 | 31.43521 | -81.13248 | 34260 ft | 419 kts | 220° |
| 2026-04-21 10:02 | 31.35727 | -81.17989 | 34278 ft | 423 kts | 219° |
| 2026-04-21 10:03 | 31.30453 | -81.21107 | 34277 ft | 425 kts | 219° |
| 2026-04-21 10:03 | 31.25162 | -81.24235 | 34265 ft | 426 kts | 219° |
| 2026-04-21 10:04 | 31.19741 | -81.27145 | 34261 ft | 436 kts | 210° |
| 2026-04-21 10:04 | 31.14750 | -81.28331 | 34237 ft | 449 kts | 198° |
| 2026-04-21 10:05 | 31.08383 | -81.28389 | 34263 ft | 459 kts | 193° |
| 2026-04-21 10:05 | 31.02040 | -81.28283 | 34271 ft | 459 kts | 193° |
| 2026-04-21 10:06 | 30.95648 | -81.28221 | 34281 ft | 460 kts | 193° |
| 2026-04-21 10:06 | 30.89253 | -81.28193 | 34270 ft | 459 kts | 194° |
| 2026-04-21 10:07 | 30.82831 | -81.28179 | 33742 ft | 465 kts | 193° |
| 2026-04-21 10:07 | 30.79604 | -81.28170 | 33137 ft | 463 kts | 193° |
| 2026-04-21 10:07 | 30.76386 | -81.28157 | 32462 ft | 462 kts | 193° |
| 2026-04-21 10:07 | 30.73164 | -81.28145 | 31772 ft | 463 kts | 192° |
| 2026-04-21 10:08 | 30.69959 | -81.28132 | 31282 ft | 460 kts | 192° |
| 2026-04-21 10:08 | 30.66762 | -81.28119 | 30641 ft | 457 kts | 191° |
| 2026-04-21 10:08 | 30.63602 | -81.28107 | 30213 ft | 451 kts | 190° |
| 2026-04-21 10:08 | 30.60487 | -81.28094 | 29703 ft | 445 kts | 189° |
| 2026-04-21 10:09 | 30.57396 | -81.28033 | 29222 ft | 442 kts | 188° |
| 2026-04-21 10:09 | 30.54340 | -81.27880 | 28718 ft | 439 kts | 187° |
| 2026-04-21 10:09 | 30.51293 | -81.27694 | 28218 ft | 435 kts | 186° |
| 2026-04-21 10:09 | 30.48283 | -81.27511 | 27719 ft | 431 kts | 186° |
| 2026-04-21 10:10 | 30.45297 | -81.27341 | 27240 ft | 427 kts | 186° |
| 2026-04-21 10:10 | 30.42344 | -81.27183 | 26759 ft | 424 kts | 186° |
| 2026-04-21 10:10 | 30.39407 | -81.27033 | 26292 ft | 421 kts | 186° |
| 2026-04-21 10:10 | 30.36493 | -81.26888 | 25817 ft | 418 kts | 186° |
| 2026-04-21 10:11 | 30.33595 | -81.26744 | 25344 ft | 415 kts | 186° |
| 2026-04-21 10:11 | 30.30756 | -81.26602 | 24883 ft | 413 kts | 186° |
| 2026-04-21 10:11 | 30.27891 | -81.26458 | 24396 ft | 411 kts | 185° |
| 2026-04-21 10:11 | 30.25030 | -81.26304 | 23843 ft | 413 kts | 185° |
| 2026-04-21 10:12 | 30.22155 | -81.26130 | 23213 ft | 414 kts | 184° |
| 2026-04-21 10:12 | 30.19284 | -81.25948 | 22625 ft | 413 kts | 184° |
| 2026-04-21 10:12 | 30.16419 | -81.25766 | 22057 ft | 411 kts | 184° |
| 2026-04-21 10:12 | 30.13573 | -81.25586 | 21503 ft | 409 kts | 183° |
| 2026-04-21 10:13 | 30.10741 | -81.25409 | 20949 ft | 407 kts | 183° |
| 2026-04-21 10:13 | 30.07919 | -81.25234 | 20409 ft | 405 kts | 183° |
| 2026-04-21 10:13 | 30.05110 | -81.25062 | 19880 ft | 403 kts | 183° |
| 2026-04-21 10:13 | 30.02318 | -81.24891 | 19354 ft | 401 kts | 182° |
| 2026-04-21 10:14 | 29.99529 | -81.24721 | 18804 ft | 400 kts | 182° |
| 2026-04-21 10:14 | 29.96752 | -81.24551 | 18215 ft | 400 kts | 182° |
| 2026-04-21 10:14 | 29.93980 | -81.24381 | 17643 ft | 397 kts | 182° |
| 2026-04-21 10:14 | 29.91266 | -81.24220 | 17098 ft | 394 kts | 182° |
| 2026-04-21 10:15 | 29.88530 | -81.24104 | 16572 ft | 391 kts | 183° |
| 2026-04-21 10:15 | 29.85823 | -81.24013 | 16044 ft | 389 kts | 183° |
| 2026-04-21 10:15 | 29.83123 | -81.23926 | 15524 ft | 386 kts | 182° |
| 2026-04-21 10:15 | 29.80420 | -81.23837 | 14792 ft | 390 kts | 182° |
| 2026-04-21 10:16 | 29.77713 | -81.23743 | 14235 ft | 389 kts | 182° |
| 2026-04-21 10:16 | 29.75036 | -81.23645 | 13639 ft | 378 kts | 182° |
| 2026-04-21 10:16 | 29.72453 | -81.23549 | 13105 ft | 366 kts | 182° |
| 2026-04-21 10:16 | 29.69947 | -81.23456 | 12608 ft | 354 kts | 181° |
| 2026-04-21 10:17 | 29.67517 | -81.23338 | 12147 ft | 344 kts | 177° |
| 2026-04-21 10:17 | 29.65225 | -81.22793 | 12005 ft | 329 kts | 164° |
| 2026-04-21 10:17 | 29.63158 | -81.21850 | 11973 ft | 309 kts | 160° |
| 2026-04-21 10:17 | 29.61239 | -81.20923 | 11961 ft | 289 kts | 160° |
| 2026-04-21 10:18 | 29.59446 | -81.20063 | 11948 ft | 270 kts | 161° |
| 2026-04-21 10:18 | 29.57760 | -81.19265 | 11953 ft | 256 kts | 161° |
| 2026-04-21 10:18 | 29.56140 | -81.18508 | 11972 ft | 254 kts | 161° |
| 2026-04-21 10:18 | 29.54495 | -81.17742 | 11986 ft | 256 kts | 161° |
| 2026-04-21 10:19 | 29.52841 | -81.16973 | 11982 ft | 258 kts | 161° |
| 2026-04-21 10:19 | 29.51155 | -81.16256 | 11843 ft | 259 kts | 169° |
| 2026-04-21 10:19 | 29.49396 | -81.15800 | 11599 ft | 258 kts | 172° |
| 2026-04-21 10:19 | 29.47642 | -81.15407 | 11360 ft | 255 kts | 172° |
| 2026-04-21 10:20 | 29.45915 | -81.15019 | 11117 ft | 250 kts | 172° |
| 2026-04-21 10:20 | 29.44222 | -81.14628 | 10881 ft | 246 kts | 172° |
| 2026-04-21 10:20 | 29.42546 | -81.14234 | 10672 ft | 246 kts | 172° |
| 2026-04-21 10:20 | 29.40870 | -81.13834 | 10459 ft | 246 kts | 171° |
| 2026-04-21 10:21 | 29.39189 | -81.13429 | 10229 ft | 249 kts | 171° |
| 2026-04-21 10:21 | 29.37474 | -81.13013 | 9976 ft | 253 kts | 171° |
| 2026-04-21 10:21 | 29.35751 | -81.12593 | 9720 ft | 252 kts | 171° |
| 2026-04-21 10:21 | 29.34045 | -81.12177 | 9495 ft | 250 kts | 171° |
| 2026-04-21 10:22 | 29.32331 | -81.12023 | 9213 ft | 244 kts | 196° |
| 2026-04-21 10:22 | 29.30877 | -81.12865 | 9015 ft | 231 kts | 228° |
| 2026-04-21 10:22 | 29.29962 | -81.14318 | 8816 ft | 221 kts | 250° |
| 2026-04-21 10:22 | 29.29542 | -81.15978 | 8628 ft | 215 kts | 261° |
| 2026-04-21 10:23 | 29.29275 | -81.17655 | 8438 ft | 214 kts | 262° |
| 2026-04-21 10:23 | 29.29023 | -81.19336 | 8244 ft | 214 kts | 262° |
| 2026-04-21 10:23 | 29.28774 | -81.20994 | 8048 ft | 214 kts | 262° |
| 2026-04-21 10:23 | 29.28515 | -81.22694 | 7848 ft | 214 kts | 262° |
| 2026-04-21 10:24 | 29.28261 | -81.24348 | 7658 ft | 213 kts | 262° |
| 2026-04-21 10:24 | 29.27889 | -81.25987 | 7441 ft | 215 kts | 243° |
| 2026-04-21 10:24 | 29.26980 | -81.27348 | 7284 ft | 215 kts | 232° |
| 2026-04-21 10:24 | 29.26018 | -81.28650 | 7095 ft | 214 kts | 233° |
| 2026-04-21 10:25 | 29.25065 | -81.29954 | 6922 ft | 213 kts | 233° |
| 2026-04-21 10:25 | 29.24118 | -81.31251 | 6761 ft | 211 kts | 233° |
| 2026-04-21 10:25 | 29.23187 | -81.32536 | 6633 ft | 208 kts | 233° |
| 2026-04-21 10:25 | 29.22271 | -81.33803 | 6491 ft | 206 kts | 233° |
| 2026-04-21 10:26 | 29.21345 | -81.35088 | 6106 ft | 219 kts | 233° |
| 2026-04-21 10:26 | 29.20342 | -81.36489 | 5542 ft | 235 kts | 233° |
| 2026-04-21 10:26 | 29.19291 | -81.37962 | 5032 ft | 240 kts | 232° |
| 2026-04-21 10:26 | 29.18261 | -81.39418 | 4816 ft | 231 kts | 233° |
| 2026-04-21 10:27 | 29.17190 | -81.40693 | 4759 ft | 216 kts | 213° |
| 2026-04-21 10:27 | 29.15793 | -81.41123 | 4725 ft | 209 kts | 177° |
| 2026-04-21 10:27 | 29.14394 | -81.40603 | 4726 ft | 219 kts | 157° |
| 2026-04-21 10:27 | 29.13005 | -81.39789 | 4512 ft | 228 kts | 155° |
| 2026-04-21 10:28 | 29.11592 | -81.38951 | 4341 ft | 227 kts | 155° |
| 2026-04-21 10:28 | 29.10209 | -81.38140 | 4230 ft | 219 kts | 155° |
| 2026-04-21 10:28 | 29.08874 | -81.37365 | 4224 ft | 214 kts | 155° |
| 2026-04-21 10:28 | 29.07555 | -81.36562 | 4228 ft | 217 kts | 148° |
| 2026-04-21 10:29 | 29.06594 | -81.35243 | 4111 ft | 224 kts | 109° |
| 2026-04-21 10:29 | 29.06598 | -81.33490 | 3851 ft | 222 kts | 65° |
| 2026-04-21 10:29 | 29.07387 | -81.32055 | 3712 ft | 207 kts | 55° |
| 2026-04-21 10:29 | 29.08058 | -81.30642 | 3529 ft | 197 kts | 63° |
| 2026-04-21 10:30 | 29.08639 | -81.29223 | 3356 ft | 199 kts | 64° |
| 2026-04-21 10:30 | 29.09215 | -81.27788 | 3060 ft | 193 kts | 63° |
| 2026-04-21 10:30 | 29.09746 | -81.26458 | 2852 ft | 181 kts | 63° |
| 2026-04-21 10:30 | 29.10276 | -81.25136 | 2701 ft | 184 kts | 62° |
| 2026-04-21 10:31 | 29.10801 | -81.23829 | 2557 ft | 174 kts | 61° |
| 2026-04-21 10:31 | 29.11297 | -81.22594 | 2402 ft | 169 kts | 62° |
| 2026-04-21 10:31 | 29.11774 | -81.21406 | 2239 ft | 161 kts | 62° |
| 2026-04-21 10:31 | 29.12235 | -81.20259 | 2106 ft | 157 kts | 62° |
| 2026-04-21 10:32 | 29.12692 | -81.19121 | 1969 ft | 157 kts | 60° |
| 2026-04-21 10:32 | 29.13151 | -81.17981 | 1838 ft | 158 kts | 62° |
| 2026-04-21 10:32 | 29.13606 | -81.16849 | 1705 ft | 157 kts | 61° |
| 2026-04-21 10:32 | 29.14075 | -81.15683 | 1581 ft | 163 kts | 61° |
| 2026-04-21 10:33 | 29.14548 | -81.14507 | 1409 ft | 162 kts | 62° |
| 2026-04-21 10:33 | 29.15008 | -81.13364 | 1205 ft | 159 kts | 62° |
| 2026-04-21 10:33 | 29.15463 | -81.12231 | 986 ft | 155 kts | 63° |
| 2026-04-21 10:33 | 29.15909 | -81.11122 | 790 ft | 153 kts | 61° |
| 2026-04-21 10:34 | 29.16345 | -81.10041 | 562 ft | 147 kts | 61° |
| 2026-04-21 10:34 | 29.16787 | -81.08960 | 312 ft | 155 kts | 64° |
| 2026-04-21 10:34 | 29.17233 | -81.07818 | 135 ft | 158 kts | 59° |
| 2026-04-21 10:34 | 29.17680 | -81.06746 | 37 ft | 135 kts | 65° |
| 2026-04-21 10:35 | 29.18006 | -81.05934 | 42 ft | 75 kts | 65° |
| 2026-04-21 10:35 | 29.18180 | -81.05512 | 42 ft | 39 kts | 64° |
| 2026-04-21 10:35 | 29.18257 | -81.05395 | 41 ft | 9 kts | 17° |
| 2026-04-21 10:35 | 29.18279 | -81.05395 | 41 ft | 7 kts | 354° |
| 2026-04-21 10:36 | 29.18321 | -81.05412 | 41 ft | 0 kts | 334° |
| 2026-04-21 10:37 | 29.18328 | -81.05418 | 41 ft | 6 kts | 326° |
| 2026-04-21 10:37 | 29.18334 | -81.05489 | 41 ft | 15 kts | 248° |
| 2026-04-21 10:37 | 29.18272 | -81.05646 | 40 ft | 28 kts | 245° |
| 2026-04-21 10:38 | 29.18246 | -81.05808 | 39 ft | 17 kts | 310° |
| 2026-04-21 10:38 | 29.18330 | -81.05902 | 38 ft | 17 kts | 301° |
| 2026-04-21 10:38 | 29.18365 | -81.05976 | 40 ft | 8 kts | 312° |
| 2026-04-21 10:38 | 29.18389 | -81.06029 | 41 ft | 7 kts | 276° |
| 2026-04-21 10:39 | 29.18389 | -81.06041 | 41 ft | 0 kts | 272° |
| 2026-04-21 10:40 | 29.18382 | -81.06148 | 42 ft | 0 kts | 100° |